Terminal Aerodrome Forecast
Issued by NWS St Louis, MO

Home | Current Version | Previous Version | Text Only | Print | Product List | Glossary On
Versions: 1 2 3 4 5 6 7 8 9 10 11 12 13 14 15 16
000
FTUS43 KLSX 201700
TAFCOU
TAF
KCOU 201722Z 2018/2118 08010KT 5SM -RA BR BKN007 OVC012
     FM202100 03006KT P6SM OVC007
     FM211400 32008KT P6SM SCT007 BKN025=

USA.gov is the U.S. government's official web portal to all federal, state and local government web resources and services.